Terminal Aerodrome Forecast
Issued by NWS Indianapolis, IN

Home | Current Version | Previous Version | Text Only | Print | Product List | Glossary On
Versions: 1 2 3 4 5 6 7 8 9 10 11 12 13 14 15 16 17 18 19 20 21 22 23 24 25 26 27
000
FTUS43 KIND 291400 AAA
TAFIND
TAF AMD
KIND 291407Z 2914/3018 18007KT P6SM FEW035 BKN250
     FM291600 18010KT P6SM SCT035 SCT080 BKN250
     FM291800 18011KT P6SM VCTS SCT030CB BKN080
     FM300200 19007KT P6SM BKN080=

USA.gov is the U.S. government's official web portal to all federal, state and local government web resources and services.